sensor_id;sensor_type;location;lat;lon;timestamp;pressure;altitude;pressure_sealevel;temperature;humidity
75794;BME280;64418;47.536;19.074;2023-07-29T13:34:40;99781.63;;;33.82;28.94
75794;BME280;64418;47.536;19.074;2023-07-29T13:37:25;99780.97;;;34.15;29.30
75794;BME280;64418;47.536;19.074;2023-07-29T13:40:09;99775.91;;;34.24;29.50
75794;BME280;64418;47.536;19.074;2023-07-29T13:42:54;99785.25;;;34.62;29.11
75794;BME280;64418;47.536;19.074;2023-07-29T13:45:38;99773.81;;;34.48;28.70
75794;BME280;64418;47.536;19.074;2023-07-29T13:48:23;99775.28;;;35.31;28.12
75794;BME280;64418;47.536;19.074;2023-07-29T13:51:09;99758.66;;;34.03;29.82
75794;BME280;64418;47.536;19.074;2023-07-29T13:53:53;99764.13;;;34.75;28.94
75794;BME280;64418;47.536;19.074;2023-07-29T13:56:38;99753.09;;;34.07;29.16
75794;BME280;64418;47.536;19.074;2023-07-29T13:59:22;99764.03;;;34.68;28.44
75794;BME280;64418;47.536;19.074;2023-07-29T14:02:06;99750.56;;;35.17;27.72
75794;BME280;64418;47.536;19.074;2023-07-29T14:04:53;99749.94;;;35.01;27.35
75794;BME280;64418;47.536;19.074;2023-07-29T14:07:39;99760.31;;;34.30;28.62
75794;BME280;64418;47.536;19.074;2023-07-29T14:10:24;99748.28;;;34.33;28.28
75794;BME280;64418;47.536;19.074;2023-07-29T14:13:09;99747.19;;;33.21;29.77
75794;BME280;64418;47.536;19.074;2023-07-29T14:15:53;99734.47;;;33.95;29.05
75794;BME280;64418;47.536;19.074;2023-07-29T14:18:38;99738.34;;;34.40;28.57
75794;BME280;64418;47.536;19.074;2023-07-29T14:21:22;99724.91;;;34.29;28.39
75794;BME280;64418;47.536;19.074;2023-07-29T14:24:08;99727.00;;;34.99;27.72
75794;BME280;64418;47.536;19.074;2023-07-29T14:26:41;99732.41;;;34.18;28.26
75794;BME280;64418;47.536;19.074;2023-07-29T14:29:07;99730.69;;;33.61;29.47
75794;BME280;64418;47.536;19.074;2023-07-29T14:31:33;99726.94;;;32.89;30.70
75794;BME280;64418;47.536;19.074;2023-07-29T14:34:00;99730.47;;;33.51;29.67
75794;BME280;64418;47.536;19.074;2023-07-29T14:36:26;99726.50;;;32.68;30.95
75794;BME280;64418;47.536;19.074;2023-07-29T14:38:52;99729.91;;;32.77;31.16
75794;BME280;64418;47.536;19.074;2023-07-29T14:41:23;99717.25;;;33.28;30.52
75794;BME280;64418;47.536;19.074;2023-07-29T14:43:50;99714.03;;;33.26;30.63
75794;BME280;64418;47.536;19.074;2023-07-29T14:46:16;99717.88;;;32.22;32.62
75794;BME280;64418;47.536;19.074;2023-07-29T14:48:42;99716.72;;;32.23;32.76
75794;BME280;64418;47.536;19.074;2023-07-29T14:51:09;99725.00;;;31.85;33.38
75794;BME280;64418;47.536;19.074;2023-07-29T14:53:36;99723.66;;;31.79;33.38
75794;BME280;64418;47.536;19.074;2023-07-29T14:56:03;99718.06;;;31.79;33.49
75794;BME280;64418;47.536;19.074;2023-07-29T14:58:31;99715.62;;;31.62;33.40
75794;BME280;64418;47.536;19.074;2023-07-29T15:00:57;99721.88;;;31.71;33.53
75794;BME280;64418;47.536;19.074;2023-07-29T15:03:24;99728.19;;;31.68;33.67
75794;BME280;64418;47.536;19.074;2023-07-29T15:05:51;99719.16;;;31.59;33.76
75794;BME280;64418;47.536;19.074;2023-07-29T15:08:17;99717.34;;;31.19;34.64
75794;BME280;64418;47.536;19.074;2023-07-29T15:10:45;99716.63;;;31.22;34.65
75794;BME280;64418;47.536;19.074;2023-07-29T15:13:10;99712.37;;;30.85;35.51
75794;BME280;64418;47.536;19.074;2023-07-29T15:15:40;99707.69;;;30.89;35.55
75794;BME280;64418;47.536;19.074;2023-07-29T15:18:06;99712.66;;;31.23;35.38
75794;BME280;64418;47.536;19.074;2023-07-29T15:20:32;99708.72;;;31.12;35.45
75794;BME280;64418;47.536;19.074;2023-07-29T15:22:58;99709.63;;;31.16;35.56
75794;BME280;64418;47.536;19.074;2023-07-29T15:25:24;99719.69;;;31.48;35.28
75794;BME280;64418;47.536;19.074;2023-07-29T15:27:51;99712.53;;;31.20;35.94
75794;BME280;64418;47.536;19.074;2023-07-29T15:30:19;99718.97;;;31.36;35.42
75794;BME280;64418;47.536;19.074;2023-07-29T15:32:48;99709.56;;;31.28;35.43
75794;BME280;64418;47.536;19.074;2023-07-29T15:35:16;99706.94;;;31.20;35.96
75794;BME280;64418;47.536;19.074;2023-07-29T15:37:42;99710.44;;;30.73;36.18
75794;BME280;64418;47.536;19.074;2023-07-29T15:40:09;99715.94;;;30.70;35.91
75794;BME280;64418;47.536;19.074;2023-07-29T15:42:36;99718.69;;;30.54;35.98
75794;BME280;64418;47.536;19.074;2023-07-29T15:45:08;99715.75;;;30.63;35.67
75794;BME280;64418;47.536;19.074;2023-07-29T15:47:35;99716.12;;;30.37;36.38
75794;BME280;64418;47.536;19.074;2023-07-29T15:50:03;99712.09;;;30.34;36.69
75794;BME280;64418;47.536;19.074;2023-07-29T15:52:30;99713.34;;;30.37;36.57
75794;BME280;64418;47.536;19.074;2023-07-29T15:54:56;99721.78;;;30.25;37.12
75794;BME280;64418;47.536;19.074;2023-07-29T15:57:23;99722.53;;;29.97;37.85
75794;BME280;64418;47.536;19.074;2023-07-29T15:59:50;99720.66;;;30.14;37.85
75794;BME280;64418;47.536;19.074;2023-07-29T16:02:18;99725.22;;;30.06;37.99
75794;BME280;64418;47.536;19.074;2023-07-29T16:04:52;99722.75;;;30.04;38.12
75794;BME280;64418;47.536;19.074;2023-07-29T16:07:22;99729.16;;;29.81;38.62
75794;BME280;64418;47.536;19.074;2023-07-29T16:09:49;99726.84;;;29.83;38.70
75794;BME280;64418;47.536;19.074;2023-07-29T16:12:18;99737.78;;;29.76;38.92
75794;BME280;64418;47.536;19.074;2023-07-29T16:14:45;99732.88;;;29.73;39.20
75794;BME280;64418;47.536;19.074;2023-07-29T16:17:13;99736.38;;;29.70;39.15
75794;BME280;64418;47.536;19.074;2023-07-29T16:19:53;99743.34;;;29.51;39.66
75794;BME280;64418;47.536;19.074;2023-07-29T16:22:21;99745.00;;;29.19;40.28
75794;BME280;64418;47.536;19.074;2023-07-29T16:24:51;99737.66;;;29.03;40.20
75794;BME280;64418;47.536;19.074;2023-07-29T16:27:19;99746.47;;;29.05;40.47
75794;BME280;64418;47.536;19.074;2023-07-29T16:29:46;99742.28;;;28.99;40.67
75794;BME280;64418;47.536;19.074;2023-07-29T16:32:14;99749.09;;;28.89;41.09
75794;BME280;64418;47.536;19.074;2023-07-29T16:34:40;99751.34;;;28.96;41.11
75794;BME280;64418;47.536;19.074;2023-07-29T16:37:08;99758.22;;;28.98;41.16
75794;BME280;64418;47.536;19.074;2023-07-29T16:39:36;99749.50;;;29.00;41.42
75794;BME280;64418;47.536;19.074;2023-07-29T16:42:02;99745.72;;;28.84;41.84
75794;BME280;64418;47.536;19.074;2023-07-29T16:44:28;99751.75;;;28.74;42.55
75794;BME280;64418;47.536;19.074;2023-07-29T16:46:54;99757.09;;;28.58;42.97
75794;BME280;64418;47.536;19.074;2023-07-29T16:49:20;99765.06;;;28.47;43.57
75794;BME280;64418;47.536;19.074;2023-07-29T16:51:48;99762.31;;;28.59;43.38
75794;BME280;64418;47.536;19.074;2023-07-29T16:54:15;99764.37;;;28.50;44.03
75794;BME280;64418;47.536;19.074;2023-07-29T16:56:42;99769.72;;;28.55;43.86
75794;BME280;64418;47.536;19.074;2023-07-29T16:59:08;99766.66;;;28.48;44.18
75794;BME280;64418;47.536;19.074;2023-07-29T17:01:35;99766.81;;;28.52;44.30
75794;BME280;64418;47.536;19.074;2023-07-29T17:04:01;99769.00;;;28.46;44.51
75794;BME280;64418;47.536;19.074;2023-07-29T17:06:27;99774.44;;;28.43;44.46
75794;BME280;64418;47.536;19.074;2023-07-29T17:08:53;99783.94;;;28.42;44.04
75794;BME280;64418;47.536;19.074;2023-07-29T17:11:19;99771.97;;;28.41;44.36
75794;BME280;64418;47.536;19.074;2023-07-29T17:13:46;99778.66;;;28.28;44.68
75794;BME280;64418;47.536;19.074;2023-07-29T17:16:12;99781.47;;;28.40;44.34
75794;BME280;64418;47.536;19.074;2023-07-29T17:18:38;99785.81;;;28.29;44.41
75794;BME280;64418;47.536;19.074;2023-07-29T17:21:04;99787.94;;;28.03;45.01
75794;BME280;64418;47.536;19.074;2023-07-29T17:23:30;99792.19;;;27.80;45.55
75794;BME280;64418;47.536;19.074;2023-07-29T17:25:56;99794.97;;;27.80;45.87
75794;BME280;64418;47.536;19.074;2023-07-29T17:28:23;99798.78;;;27.66;46.78
75794;BME280;64418;47.536;19.074;2023-07-29T17:30:51;99799.31;;;27.51;48.32
75794;BME280;64418;47.536;19.074;2023-07-29T17:33:17;99802.44;;;27.50;49.29
75794;BME280;64418;47.536;19.074;2023-07-29T17:35:43;99805.41;;;27.36;50.01
75794;BME280;64418;47.536;19.074;2023-07-29T17:38:10;99802.34;;;27.12;50.45
75794;BME280;64418;47.536;19.074;2023-07-29T17:40:36;99796.00;;;26.77;50.16
75794;BME280;64418;47.536;19.074;2023-07-29T17:43:03;99804.31;;;26.68;50.62
75794;BME280;64418;47.536;19.074;2023-07-29T17:45:29;99796.47;;;26.70;50.20
75794;BME280;64418;47.536;19.074;2023-07-29T17:47:57;99797.47;;;26.57;51.02
75794;BME280;64418;47.536;19.074;2023-07-29T17:50:23;99792.56;;;26.54;50.90
75794;BME280;64418;47.536;19.074;2023-07-29T17:52:51;99801.69;;;26.46;51.12
75794;BME280;64418;47.536;19.074;2023-07-29T17:55:17;99794.16;;;26.38;53.26
75794;BME280;64418;47.536;19.074;2023-07-29T17:57:43;99795.03;;;25.91;53.64
75794;BME280;64418;47.536;19.074;2023-07-29T18:00:10;99806.41;;;25.80;54.64
75794;BME280;64418;47.536;19.074;2023-07-29T18:02:36;99793.47;;;25.67;53.90
75794;BME280;64418;47.536;19.074;2023-07-29T18:05:06;99792.22;;;25.51;53.63
75794;BME280;64418;47.536;19.074;2023-07-29T18:07:33;99791.62;;;25.54;53.85
75794;BME280;64418;47.536;19.074;2023-07-29T18:10:02;99786.50;;;25.17;55.19
75794;BME280;64418;47.536;19.074;2023-07-29T18:12:30;99785.59;;;25.30;54.75
75794;BME280;64418;47.536;19.074;2023-07-29T18:14:57;99796.59;;;25.13;55.57
75794;BME280;64418;47.536;19.074;2023-07-29T18:17:24;99800.47;;;25.12;55.57
75794;BME280;64418;47.536;19.074;2023-07-29T18:19:53;99809.59;;;25.04;55.99
75794;BME280;64418;47.536;19.074;2023-07-29T18:22:20;99797.53;;;24.86;56.38
75794;BME280;64418;47.536;19.074;2023-07-29T18:24:46;99807.12;;;25.02;56.62
75794;BME280;64418;47.536;19.074;2023-07-29T18:27:13;99800.69;;;24.93;57.04
75794;BME280;64418;47.536;19.074;2023-07-29T18:29:42;99802.03;;;24.96;56.87
75794;BME280;64418;47.536;19.074;2023-07-29T18:32:09;99806.31;;;25.02;57.21
75794;BME280;64418;47.536;19.074;2023-07-29T18:34:36;99806.66;;;25.09;56.56
75794;BME280;64418;47.536;19.074;2023-07-29T18:37:05;99817.00;;;24.95;57.24
75794;BME280;64418;47.536;19.074;2023-07-29T18:39:37;99818.78;;;24.90;58.46
75794;BME280;64418;47.536;19.074;2023-07-29T18:42:04;99820.28;;;24.97;58.10
75794;BME280;64418;47.536;19.074;2023-07-29T18:44:30;99823.84;;;24.75;58.37
75794;BME280;64418;47.536;19.074;2023-07-29T18:46:56;99823.19;;;24.78;57.98
75794;BME280;64418;47.536;19.074;2023-07-29T18:49:26;99824.47;;;24.72;59.00
75794;BME280;64418;47.536;19.074;2023-07-29T18:51:52;99814.69;;;24.74;58.88
75794;BME280;64418;47.536;19.074;2023-07-29T18:54:18;99807.72;;;24.77;58.52
75794;BME280;64418;47.536;19.074;2023-07-29T18:56:46;99814.59;;;24.79;59.02
75794;BME280;64418;47.536;19.074;2023-07-29T18:59:12;99821.78;;;24.80;58.86
75794;BME280;64418;47.536;19.074;2023-07-29T19:01:38;99836.25;;;24.77;58.69
75794;BME280;64418;47.536;19.074;2023-07-29T19:04:04;99819.13;;;24.75;59.53
75794;BME280;64418;47.536;19.074;2023-07-29T19:06:30;99813.81;;;24.65;59.71
75794;BME280;64418;47.536;19.074;2023-07-29T19:08:56;99826.22;;;24.68;59.85
75794;BME280;64418;47.536;19.074;2023-07-29T19:11:22;99828.56;;;24.74;59.29
75794;BME280;64418;47.536;19.074;2023-07-29T19:13:49;99830.31;;;24.70;59.40
75794;BME280;64418;47.536;19.074;2023-07-29T19:16:16;99824.53;;;24.58;60.13
75794;BME280;64418;47.536;19.074;2023-07-29T19:18:42;99832.94;;;24.53;60.20
75794;BME280;64418;47.536;19.074;2023-07-29T19:21:07;99839.94;;;24.37;61.25
75794;BME280;64418;47.536;19.074;2023-07-29T19:23:33;99843.44;;;24.29;61.82
75794;BME280;64418;47.536;19.074;2023-07-29T19:26:00;99847.94;;;24.38;59.52
75794;BME280;64418;47.536;19.074;2023-07-29T19:28:26;99840.81;;;24.60;56.80
75794;BME280;64418;47.536;19.074;2023-07-29T19:30:53;99831.56;;;24.64;57.03
75794;BME280;64418;47.536;19.074;2023-07-29T19:33:20;99812.38;;;24.68;56.46
75794;BME280;64418;47.536;19.074;2023-07-29T19:35:46;99816.59;;;24.65;56.24
75794;BME280;64418;47.536;19.074;2023-07-29T19:38:19;99817.81;;;24.59;56.67
75794;BME280;64418;47.536;19.074;2023-07-29T19:40:45;99810.97;;;24.57;56.68
75794;BME280;64418;47.536;19.074;2023-07-29T19:43:11;99810.41;;;24.46;56.95
75794;BME280;64418;47.536;19.074;2023-07-29T19:45:37;99806.06;;;24.54;55.68
75794;BME280;64418;47.536;19.074;2023-07-29T19:48:08;99783.97;;;24.62;55.03
75794;BME280;64418;47.536;19.074;2023-07-29T19:50:34;99787.16;;;24.56;55.40
75794;BME280;64418;47.536;19.074;2023-07-29T19:53:00;99794.25;;;24.62;55.41
75794;BME280;64418;47.536;19.074;2023-07-29T19:55:27;99786.75;;;24.62;56.07
75794;BME280;64418;47.536;19.074;2023-07-29T19:57:56;99783.88;;;24.89;55.28
75794;BME280;64418;47.536;19.074;2023-07-29T20:00:29;99783.69;;;24.86;55.75
75794;BME280;64418;47.536;19.074;2023-07-29T20:02:59;99778.06;;;24.77;56.29
75794;BME280;64418;47.536;19.074;2023-07-29T20:05:28;99769.62;;;24.82;56.12
75794;BME280;64418;47.536;19.074;2023-07-29T20:07:56;99771.91;;;24.80;56.71
75794;BME280;64418;47.536;19.074;2023-07-29T20:10:25;99762.06;;;24.74;56.60
75794;BME280;64418;47.536;19.074;2023-07-29T20:12:51;99769.72;;;24.55;57.66
75794;BME280;64418;47.536;19.074;2023-07-29T20:15:17;99775.47;;;24.23;59.05
75794;BME280;64418;47.536;19.074;2023-07-29T20:17:43;99779.50;;;24.17;58.92
75794;BME280;64418;47.536;19.074;2023-07-29T20:20:10;99788.94;;;24.16;58.84
75794;BME280;64418;47.536;19.074;2023-07-29T20:22:42;99799.19;;;24.02;59.45
75794;BME280;64418;47.536;19.074;2023-07-29T20:25:08;99804.50;;;23.98;60.42
75794;BME280;64418;47.536;19.074;2023-07-29T20:27:34;99798.34;;;23.87;61.36
75794;BME280;64418;47.536;19.074;2023-07-29T20:30:01;99796.63;;;23.78;62.17
75794;BME280;64418;47.536;19.074;2023-07-29T20:32:27;99806.56;;;23.79;62.19
75794;BME280;64418;47.536;19.074;2023-07-29T20:34:53;99814.97;;;23.74;63.33
75794;BME280;64418;47.536;19.074;2023-07-29T20:37:19;99821.69;;;23.54;63.22
75794;BME280;64418;47.536;19.074;2023-07-29T20:39:47;99827.44;;;23.44;63.51
75794;BME280;64418;47.536;19.074;2023-07-29T20:42:13;99815.00;;;23.41;63.84
75794;BME280;64418;47.536;19.074;2023-07-29T20:44:39;99801.97;;;23.28;64.63
75794;BME280;64418;47.536;19.074;2023-07-29T20:47:05;99799.62;;;23.35;63.10
75794;BME280;64418;47.536;19.074;2023-07-29T20:49:31;99811.00;;;23.34;62.03
75794;BME280;64418;47.536;19.074;2023-07-29T20:51:59;99816.91;;;23.27;62.54
75794;BME280;64418;47.536;19.074;2023-07-29T20:54:26;99819.03;;;23.17;62.97
75794;BME280;64418;47.536;19.074;2023-07-29T20:56:53;99815.84;;;23.10;63.30
75794;BME280;64418;47.536;19.074;2023-07-29T20:59:19;99817.31;;;23.21;62.92
75794;BME280;64418;47.536;19.074;2023-07-29T21:01:45;99821.66;;;23.08;62.96
75794;BME280;64418;47.536;19.074;2023-07-29T21:04:11;99823.34;;;22.90;63.38
75794;BME280;64418;47.536;19.074;2023-07-29T21:06:37;99812.91;;;22.87;63.38
75794;BME280;64418;47.536;19.074;2023-07-29T21:09:03;99817.91;;;22.85;63.09
75794;BME280;64418;47.536;19.074;2023-07-29T21:11:29;99818.72;;;22.86;62.46
75794;BME280;64418;47.536;19.074;2023-07-29T21:13:56;99822.53;;;22.90;62.05
75794;BME280;64418;47.536;19.074;2023-07-29T21:16:23;99815.69;;;23.01;61.25
75794;BME280;64418;47.536;19.074;2023-07-29T21:18:49;99811.88;;;23.48;58.09
75794;BME280;64418;47.536;19.074;2023-07-29T21:21:16;99818.22;;;23.48;58.29
75794;BME280;64418;47.536;19.074;2023-07-29T21:23:43;99822.94;;;23.48;58.31
75794;BME280;64418;47.536;19.074;2023-07-29T21:26:09;99832.75;;;23.54;58.54
75794;BME280;64418;47.536;19.074;2023-07-29T21:28:36;99825.16;;;23.46;58.83
75794;BME280;64418;47.536;19.074;2023-07-29T21:31:03;99832.19;;;23.38;59.09
75794;BME280;64418;47.536;19.074;2023-07-29T21:33:29;99837.97;;;23.23;60.43
75794;BME280;64418;47.536;19.074;2023-07-29T21:35:56;99838.56;;;23.07;60.88
75794;BME280;64418;47.536;19.074;2023-07-29T21:38:22;99844.78;;;22.98;61.57
75794;BME280;64418;47.536;19.074;2023-07-29T21:40:48;99848.16;;;22.95;61.34
75794;BME280;64418;47.536;19.074;2023-07-29T21:43:14;99846.50;;;22.94;61.97
75794;BME280;64418;47.536;19.074;2023-07-29T21:45:41;99854.03;;;22.89;62.79
75794;BME280;64418;47.536;19.074;2023-07-29T21:48:12;99854.63;;;22.86;62.96
75794;BME280;64418;47.536;19.074;2023-07-29T21:50:37;99848.53;;;22.70;63.55
75794;BME280;64418;47.536;19.074;2023-07-29T21:53:04;99867.84;;;22.70;63.52
75794;BME280;64418;47.536;19.074;2023-07-29T21:55:30;99865.09;;;22.70;63.35
75794;BME280;64418;47.536;19.074;2023-07-29T21:57:57;99860.72;;;22.69;63.29
75794;BME280;64418;47.536;19.074;2023-07-29T22:00:23;99860.81;;;22.59;64.05
75794;BME280;64418;47.536;19.074;2023-07-29T22:02:50;99867.38;;;22.63;63.80
75794;BME280;64418;47.536;19.074;2023-07-29T22:05:17;99858.25;;;22.63;63.59
75794;BME280;64418;47.536;19.074;2023-07-29T22:07:46;99867.38;;;22.63;63.81
75794;BME280;64418;47.536;19.074;2023-07-29T22:10:12;99869.63;;;22.61;63.99
75794;BME280;64418;47.536;19.074;2023-07-29T22:12:38;99866.56;;;22.63;64.01
75794;BME280;64418;47.536;19.074;2023-07-29T22:15:05;99856.94;;;22.60;63.99
75794;BME280;64418;47.536;19.074;2023-07-29T22:17:33;99866.31;;;22.59;63.78
75794;BME280;64418;47.536;19.074;2023-07-29T22:20:01;99861.94;;;22.58;63.70
75794;BME280;64418;47.536;19.074;2023-07-29T22:22:30;99867.97;;;22.60;63.21
75794;BME280;64418;47.536;19.074;2023-07-29T22:24:59;99882.06;;;22.58;63.42
75794;BME280;64418;47.536;19.074;2023-07-29T22:27:26;99873.34;;;22.51;63.60
75794;BME280;64418;47.536;19.074;2023-07-29T22:29:52;99873.50;;;22.60;63.14
75794;BME280;64418;47.536;19.074;2023-07-29T22:32:18;99875.22;;;22.56;62.86
75794;BME280;64418;47.536;19.074;2023-07-29T22:34:44;99877.97;;;22.56;62.93
75794;BME280;64418;47.536;19.074;2023-07-29T22:37:11;99879.63;;;22.57;62.76
75794;BME280;64418;47.536;19.074;2023-07-29T22:39:39;99867.53;;;22.53;62.85
75794;BME280;64418;47.536;19.074;2023-07-29T22:42:07;99876.47;;;22.64;62.44
75794;BME280;64418;47.536;19.074;2023-07-29T22:44:33;99874.56;;;22.64;62.81
75794;BME280;64418;47.536;19.074;2023-07-29T22:46:59;99874.09;;;22.57;62.53
75794;BME280;64418;47.536;19.074;2023-07-29T22:49:25;99874.47;;;22.50;62.57
75794;BME280;64418;47.536;19.074;2023-07-29T22:52:10;99877.75;;;22.52;62.46
75794;BME280;64418;47.536;19.074;2023-07-29T22:54:56;99887.13;;;22.51;62.75
75794;BME280;64418;47.536;19.074;2023-07-29T22:57:40;99872.00;;;22.49;62.50
75794;BME280;64418;47.536;19.074;2023-07-29T23:00:25;99872.28;;;22.47;62.81
75794;BME280;64418;47.536;19.074;2023-07-29T23:03:10;99876.63;;;22.35;63.30
75794;BME280;64418;47.536;19.074;2023-07-29T23:05:54;99877.22;;;22.32;63.51
75794;BME280;64418;47.536;19.074;2023-07-29T23:08:39;99881.53;;;22.38;63.42
75794;BME280;64418;47.536;19.074;2023-07-29T23:11:24;99881.09;;;22.31;63.87
75794;BME280;64418;47.536;19.074;2023-07-29T23:14:09;99879.44;;;22.30;64.09
75794;BME280;64418;47.536;19.074;2023-07-29T23:16:54;99886.78;;;22.39;63.80
75794;BME280;64418;47.536;19.074;2023-07-29T23:19:39;99886.69;;;22.44;63.62
75794;BME280;64418;47.536;19.074;2023-07-29T23:22:24;99869.75;;;22.51;63.26
75794;BME280;64418;47.536;19.074;2023-07-29T23:25:08;99877.59;;;22.63;63.00
75794;BME280;64418;47.536;19.074;2023-07-29T23:27:55;99866.22;;;22.69;62.75
75794;BME280;64418;47.536;19.074;2023-07-29T23:30:39;99872.28;;;22.66;62.69
75794;BME280;64418;47.536;19.074;2023-07-29T23:33:23;99870.94;;;22.69;62.43
75794;BME280;64418;47.536;19.074;2023-07-29T23:36:08;99865.47;;;22.82;61.99
75794;BME280;64418;47.536;19.074;2023-07-29T23:38:35;99871.59;;;22.79;61.78
75794;BME280;64418;47.536;19.074;2023-07-29T23:41:01;99875.91;;;22.85;61.59
75794;BME280;64418;47.536;19.074;2023-07-29T23:43:32;99885.84;;;22.86;61.51
75794;BME280;64418;47.536;19.074;2023-07-29T23:45:58;99876.44;;;22.87;61.60
75794;BME280;64418;47.536;19.074;2023-07-29T23:48:24;99874.50;;;22.88;61.54
75794;BME280;64418;47.536;19.074;2023-07-29T23:50:52;99875.34;;;22.88;61.53
75794;BME280;64418;47.536;19.074;2023-07-29T23:53:19;99880.53;;;22.90;61.55
75794;BME280;64418;47.536;19.074;2023-07-29T23:55:45;99881.22;;;22.82;61.95
75794;BME280;64418;47.536;19.074;2023-07-29T23:58:12;99891.44;;;22.81;62.02
